sensor_id;sensor_type;location;lat;lon;timestamp;pressure;altitude;pressure_sealevel;temperature;humidity
80693;BME280;70055;39.436;-77.514;2023-07-28T00:00:40;99402.51;;;24.75;60.92
80693;BME280;70055;39.436;-77.514;2023-07-28T00:03:10;99410.49;;;24.71;60.64
80693;BME280;70055;39.436;-77.514;2023-07-28T00:05:38;99409.85;;;24.81;59.97
80693;BME280;70055;39.436;-77.514;2023-07-28T00:08:06;99417.81;;;25.67;58.41
80693;BME280;70055;39.436;-77.514;2023-07-28T00:10:40;99413.31;;;25.34;58.78
80693;BME280;70055;39.436;-77.514;2023-07-28T00:13:08;99413.87;;;24.92;59.71
80693;BME280;70055;39.436;-77.514;2023-07-28T00:15:37;99417.78;;;25.51;58.72
80693;BME280;70055;39.436;-77.514;2023-07-28T00:18:05;99423.64;;;25.31;59.42
80693;BME280;70055;39.436;-77.514;2023-07-28T00:20:33;99426.58;;;25.39;59.22
80693;BME280;70055;39.436;-77.514;2023-07-28T00:23:02;99415.20;;;24.33;60.96
80693;BME280;70055;39.436;-77.514;2023-07-28T00:25:30;99400.95;;;24.01;62.06
80693;BME280;70055;39.436;-77.514;2023-07-28T00:27:58;99409.04;;;24.39;61.22
80693;BME280;70055;39.436;-77.514;2023-07-28T00:30:26;99427.77;;;25.06;60.12
80693;BME280;70055;39.436;-77.514;2023-07-28T00:32:55;99432.23;;;25.22;59.08
80693;BME280;70055;39.436;-77.514;2023-07-28T00:35:23;99430.58;;;24.17;62.06
80693;BME280;70055;39.436;-77.514;2023-07-28T00:37:51;99425.43;;;24.26;61.06
80693;BME280;70055;39.436;-77.514;2023-07-28T00:40:21;99414.40;;;23.74;62.51
80693;BME280;70055;39.436;-77.514;2023-07-28T00:42:49;99414.35;;;25.05;58.65
80693;BME280;70055;39.436;-77.514;2023-07-28T00:45:17;99407.06;;;23.50;62.80
80693;BME280;70055;39.436;-77.514;2023-07-28T00:47:46;99405.27;;;21.89;66.23
80693;BME280;70055;39.436;-77.514;2023-07-28T00:50:15;99403.34;;;23.06;64.30
80693;BME280;70055;39.436;-77.514;2023-07-28T00:52:43;99402.44;;;22.26;65.83
80693;BME280;70055;39.436;-77.514;2023-07-28T00:55:11;99402.43;;;23.89;62.33
80693;BME280;70055;39.436;-77.514;2023-07-28T00:57:40;99396.59;;;23.24;62.39
80693;BME280;70055;39.436;-77.514;2023-07-28T01:00:10;99389.36;;;23.51;61.50
80693;BME280;70055;39.436;-77.514;2023-07-28T01:02:38;99396.19;;;23.07;62.39
80693;BME280;70055;39.436;-77.514;2023-07-28T01:05:07;99399.70;;;23.97;60.84
80693;BME280;70055;39.436;-77.514;2023-07-28T01:07:42;99399.96;;;24.21;59.88
80693;BME280;70055;39.436;-77.514;2023-07-28T01:10:17;99404.22;;;23.41;61.95
80693;BME280;70055;39.436;-77.514;2023-07-28T01:12:46;99409.66;;;22.83;63.04
80693;BME280;70055;39.436;-77.514;2023-07-28T01:15:14;99419.51;;;22.46;65.27
80693;BME280;70055;39.436;-77.514;2023-07-28T01:17:43;99417.65;;;23.17;63.08
80693;BME280;70055;39.436;-77.514;2023-07-28T01:20:11;99421.24;;;22.72;65.63
80693;BME280;70055;39.436;-77.514;2023-07-28T01:22:50;99433.61;;;22.38;64.44
80693;BME280;70055;39.436;-77.514;2023-07-28T01:25:32;99433.53;;;23.52;62.67
80693;BME280;70055;39.436;-77.514;2023-07-28T01:28:05;99430.00;;;23.78;61.48
80693;BME280;70055;39.436;-77.514;2023-07-28T01:30:33;99442.49;;;23.81;62.14
80693;BME280;70055;39.436;-77.514;2023-07-28T01:33:07;99447.27;;;22.95;64.16
80693;BME280;70055;39.436;-77.514;2023-07-28T01:35:36;99445.06;;;21.68;69.24
80693;BME280;70055;39.436;-77.514;2023-07-28T01:38:05;99431.24;;;22.96;65.07
80693;BME280;70055;39.436;-77.514;2023-07-28T01:40:34;99434.83;;;22.21;67.61
80693;BME280;70055;39.436;-77.514;2023-07-28T01:43:01;99437.17;;;22.22;67.01
80693;BME280;70055;39.436;-77.514;2023-07-28T01:45:30;99432.98;;;22.42;65.74
80693;BME280;70055;39.436;-77.514;2023-07-28T01:47:59;99433.02;;;22.07;67.02
80693;BME280;70055;39.436;-77.514;2023-07-28T01:50:29;99435.34;;;23.63;63.32
80693;BME280;70055;39.436;-77.514;2023-07-28T01:52:58;99433.50;;;23.47;63.32
80693;BME280;70055;39.436;-77.514;2023-07-28T01:55:28;99425.96;;;23.51;62.85
80693;BME280;70055;39.436;-77.514;2023-07-28T01:57:58;99421.15;;;23.73;62.23
80693;BME280;70055;39.436;-77.514;2023-07-28T02:00:27;99430.04;;;23.99;61.68
80693;BME280;70055;39.436;-77.514;2023-07-28T02:02:56;99437.78;;;24.34;61.05
80693;BME280;70055;39.436;-77.514;2023-07-28T02:05:24;99438.28;;;23.51;62.03
80693;BME280;70055;39.436;-77.514;2023-07-28T02:07:53;99443.44;;;23.87;60.29
80693;BME280;70055;39.436;-77.514;2023-07-28T02:10:22;99443.57;;;24.68;59.49
80693;BME280;70055;39.436;-77.514;2023-07-28T02:12:50;99445.43;;;23.80;60.93
80693;BME280;70055;39.436;-77.514;2023-07-28T02:15:19;99449.52;;;23.02;62.24
80693;BME280;70055;39.436;-77.514;2023-07-28T02:17:48;99446.07;;;22.93;63.00
80693;BME280;70055;39.436;-77.514;2023-07-28T02:20:17;99443.93;;;23.24;62.55
80693;BME280;70055;39.436;-77.514;2023-07-28T02:22:44;99441.13;;;23.70;61.46
80693;BME280;70055;39.436;-77.514;2023-07-28T02:25:14;99437.06;;;23.44;62.82
80693;BME280;70055;39.436;-77.514;2023-07-28T02:27:42;99445.76;;;23.07;63.39
80693;BME280;70055;39.436;-77.514;2023-07-28T02:30:10;99445.04;;;23.35;62.49
80693;BME280;70055;39.436;-77.514;2023-07-28T02:32:38;99438.82;;;22.92;62.28
80693;BME280;70055;39.436;-77.514;2023-07-28T02:35:06;99443.70;;;23.68;61.42
80693;BME280;70055;39.436;-77.514;2023-07-28T02:37:35;99448.12;;;24.08;60.47
80693;BME280;70055;39.436;-77.514;2023-07-28T02:40:05;99444.63;;;24.02;60.59
80693;BME280;70055;39.436;-77.514;2023-07-28T02:42:33;99450.85;;;23.85;60.58
80693;BME280;70055;39.436;-77.514;2023-07-28T02:45:01;99460.23;;;24.50;59.38
80693;BME280;70055;39.436;-77.514;2023-07-28T02:47:29;99466.08;;;23.71;60.64
80693;BME280;70055;39.436;-77.514;2023-07-28T02:49:58;99472.64;;;23.97;60.27
80693;BME280;70055;39.436;-77.514;2023-07-28T02:52:26;99470.24;;;24.31;59.69
80693;BME280;70055;39.436;-77.514;2023-07-28T02:54:56;99480.03;;;23.35;62.30
80693;BME280;70055;39.436;-77.514;2023-07-28T02:57:24;99479.68;;;24.27;60.13
80693;BME280;70055;39.436;-77.514;2023-07-28T02:59:53;99478.70;;;23.86;60.37
80693;BME280;70055;39.436;-77.514;2023-07-28T03:02:22;99480.73;;;24.27;60.59
80693;BME280;70055;39.436;-77.514;2023-07-28T03:04:50;99488.17;;;23.38;61.43
80693;BME280;70055;39.436;-77.514;2023-07-28T03:07:18;99481.87;;;23.38;61.74
80693;BME280;70055;39.436;-77.514;2023-07-28T03:09:46;99476.43;;;23.93;60.02
80693;BME280;70055;39.436;-77.514;2023-07-28T03:12:14;99477.77;;;23.22;61.34
80693;BME280;70055;39.436;-77.514;2023-07-28T03:14:42;99479.75;;;23.45;60.46
80693;BME280;70055;39.436;-77.514;2023-07-28T03:17:10;99478.45;;;22.75;62.02
80693;BME280;70055;39.436;-77.514;2023-07-28T03:19:38;99480.19;;;22.05;63.72
80693;BME280;70055;39.436;-77.514;2023-07-28T03:22:06;99480.29;;;22.81;62.21
80693;BME280;70055;39.436;-77.514;2023-07-28T03:24:34;99483.69;;;22.94;62.34
80693;BME280;70055;39.436;-77.514;2023-07-28T03:27:02;99483.91;;;23.34;60.38
80693;BME280;70055;39.436;-77.514;2023-07-28T03:29:30;99482.87;;;23.44;60.38
80693;BME280;70055;39.436;-77.514;2023-07-28T03:31:58;99485.49;;;23.48;61.16
80693;BME280;70055;39.436;-77.514;2023-07-28T03:34:26;99482.05;;;23.34;60.85
80693;BME280;70055;39.436;-77.514;2023-07-28T03:36:55;99483.18;;;23.52;60.99
80693;BME280;70055;39.436;-77.514;2023-07-28T03:39:23;99487.82;;;23.40;60.56
80693;BME280;70055;39.436;-77.514;2023-07-28T03:41:52;99491.78;;;22.86;62.14
80693;BME280;70055;39.436;-77.514;2023-07-28T03:44:20;99495.61;;;23.09;61.50
80693;BME280;70055;39.436;-77.514;2023-07-28T03:46:49;99484.75;;;22.87;61.37
80693;BME280;70055;39.436;-77.514;2023-07-28T03:49:17;99478.12;;;23.42;60.54
80693;BME280;70055;39.436;-77.514;2023-07-28T03:51:44;99473.35;;;23.38;60.57
80693;BME280;70055;39.436;-77.514;2023-07-28T03:54:12;99468.89;;;22.85;62.09
80693;BME280;70055;39.436;-77.514;2023-07-28T03:56:40;99474.99;;;22.57;63.37
80693;BME280;70055;39.436;-77.514;2023-07-28T03:59:08;99482.50;;;21.66;66.19
80693;BME280;70055;39.436;-77.514;2023-07-28T04:01:35;99469.06;;;22.97;62.94
80693;BME280;70055;39.436;-77.514;2023-07-28T04:04:04;99466.22;;;23.22;62.23
80693;BME280;70055;39.436;-77.514;2023-07-28T04:06:42;99470.22;;;22.65;63.55
80693;BME280;70055;39.436;-77.514;2023-07-28T04:09:12;99461.95;;;23.02;61.85
80693;BME280;70055;39.436;-77.514;2023-07-28T04:11:41;99466.83;;;23.11;62.24
80693;BME280;70055;39.436;-77.514;2023-07-28T04:14:09;99469.90;;;22.62;63.84
80693;BME280;70055;39.436;-77.514;2023-07-28T04:16:37;99469.94;;;22.42;65.10
80693;BME280;70055;39.436;-77.514;2023-07-28T04:19:07;99473.74;;;21.94;65.40
80693;BME280;70055;39.436;-77.514;2023-07-28T04:21:34;99480.48;;;23.07;62.59
80693;BME280;70055;39.436;-77.514;2023-07-28T04:24:02;99478.23;;;22.86;63.48
80693;BME280;70055;39.436;-77.514;2023-07-28T04:26:30;99472.69;;;22.16;65.76
80693;BME280;70055;39.436;-77.514;2023-07-28T04:28:58;99474.08;;;22.25;64.27
80693;BME280;70055;39.436;-77.514;2023-07-28T04:31:26;99476.10;;;22.29;64.29
80693;BME280;70055;39.436;-77.514;2023-07-28T04:33:55;99480.48;;;21.56;65.84
80693;BME280;70055;39.436;-77.514;2023-07-28T04:36:22;99483.84;;;21.92;66.18
80693;BME280;70055;39.436;-77.514;2023-07-28T04:38:50;99484.99;;;22.66;63.63
80693;BME280;70055;39.436;-77.514;2023-07-28T04:41:18;99491.22;;;22.76;62.26
80693;BME280;70055;39.436;-77.514;2023-07-28T04:43:46;99490.80;;;22.54;62.90
80693;BME280;70055;39.436;-77.514;2023-07-28T04:46:14;99489.28;;;22.47;62.07
80693;BME280;70055;39.436;-77.514;2023-07-28T04:48:42;99490.01;;;22.67;61.98
80693;BME280;70055;39.436;-77.514;2023-07-28T04:51:12;99493.60;;;22.74;61.58
80693;BME280;70055;39.436;-77.514;2023-07-28T04:53:40;99495.30;;;22.70;63.12
80693;BME280;70055;39.436;-77.514;2023-07-28T04:56:08;99490.61;;;23.67;61.43
80693;BME280;70055;39.436;-77.514;2023-07-28T04:58:36;99487.78;;;23.62;61.31
80693;BME280;70055;39.436;-77.514;2023-07-28T05:01:05;99492.98;;;22.17;64.85
80693;BME280;70055;39.436;-77.514;2023-07-28T05:03:33;99493.51;;;22.38;64.05
80693;BME280;70055;39.436;-77.514;2023-07-28T05:06:03;99477.94;;;23.06;61.65
80693;BME280;70055;39.436;-77.514;2023-07-28T05:08:32;99476.80;;;23.33;61.49
80693;BME280;70055;39.436;-77.514;2023-07-28T05:11:00;99478.14;;;22.45;63.47
80693;BME280;70055;39.436;-77.514;2023-07-28T05:13:30;99477.24;;;23.76;60.31
80693;BME280;70055;39.436;-77.514;2023-07-28T05:15:58;99484.88;;;24.41;59.36
80693;BME280;70055;39.436;-77.514;2023-07-28T05:18:26;99488.87;;;24.33;59.20
80693;BME280;70055;39.436;-77.514;2023-07-28T05:20:54;99496.91;;;22.75;63.21
80693;BME280;70055;39.436;-77.514;2023-07-28T05:23:22;99498.99;;;22.63;64.32
80693;BME280;70055;39.436;-77.514;2023-07-28T05:25:50;99503.79;;;21.80;66.79
80693;BME280;70055;39.436;-77.514;2023-07-28T05:28:18;99506.38;;;22.13;65.91
80693;BME280;70055;39.436;-77.514;2023-07-28T05:30:46;99506.44;;;21.31;68.30
80693;BME280;70055;39.436;-77.514;2023-07-28T05:33:14;99509.47;;;21.91;66.94
80693;BME280;70055;39.436;-77.514;2023-07-28T05:35:42;99516.65;;;21.05;68.79
80693;BME280;70055;39.436;-77.514;2023-07-28T05:38:10;99517.53;;;22.13;66.06
80693;BME280;70055;39.436;-77.514;2023-07-28T05:40:38;99522.83;;;23.05;63.24
80693;BME280;70055;39.436;-77.514;2023-07-28T05:43:07;99520.31;;;23.39;62.06
80693;BME280;70055;39.436;-77.514;2023-07-28T05:45:35;99522.40;;;23.88;60.93
80693;BME280;70055;39.436;-77.514;2023-07-28T05:48:03;99522.57;;;23.66;60.71
80693;BME280;70055;39.436;-77.514;2023-07-28T05:50:31;99517.00;;;23.74;60.39
80693;BME280;70055;39.436;-77.514;2023-07-28T05:53:00;99517.37;;;23.82;59.97
80693;BME280;70055;39.436;-77.514;2023-07-28T05:55:28;99522.02;;;23.28;61.35
80693;BME280;70055;39.436;-77.514;2023-07-28T05:57:57;99523.78;;;23.86;59.96
80693;BME280;70055;39.436;-77.514;2023-07-28T06:00:25;99515.77;;;23.09;62.09
80693;BME280;70055;39.436;-77.514;2023-07-28T06:02:53;99528.66;;;21.76;65.37
80693;BME280;70055;39.436;-77.514;2023-07-28T06:05:22;99519.89;;;23.22;62.01
80693;BME280;70055;39.436;-77.514;2023-07-28T06:07:49;99524.34;;;22.57;63.40
80693;BME280;70055;39.436;-77.514;2023-07-28T06:10:17;99522.66;;;23.84;59.45
80693;BME280;70055;39.436;-77.514;2023-07-28T06:12:46;99520.74;;;23.31;60.83
80693;BME280;70055;39.436;-77.514;2023-07-28T06:15:13;99518.59;;;23.13;60.21
80693;BME280;70055;39.436;-77.514;2023-07-28T06:17:42;99526.08;;;22.90;61.25
80693;BME280;70055;39.436;-77.514;2023-07-28T06:20:11;99520.24;;;23.55;59.80
80693;BME280;70055;39.436;-77.514;2023-07-28T06:22:40;99520.30;;;23.33;59.49
80693;BME280;70055;39.436;-77.514;2023-07-28T06:25:08;99515.45;;;23.76;59.63
80693;BME280;70055;39.436;-77.514;2023-07-28T06:27:36;99522.67;;;23.42;59.71
80693;BME280;70055;39.436;-77.514;2023-07-28T06:30:06;99523.23;;;23.78;59.23
80693;BME280;70055;39.436;-77.514;2023-07-28T06:32:34;99519.34;;;23.60;60.09
80693;BME280;70055;39.436;-77.514;2023-07-28T06:35:02;99525.05;;;22.39;63.54
80693;BME280;70055;39.436;-77.514;2023-07-28T06:37:30;99520.76;;;23.79;61.07
80693;BME280;70055;39.436;-77.514;2023-07-28T06:39:58;99519.24;;;23.73;59.02
80693;BME280;70055;39.436;-77.514;2023-07-28T06:42:26;99518.25;;;23.29;60.67
80693;BME280;70055;39.436;-77.514;2023-07-28T06:44:54;99518.42;;;23.23;60.72
80693;BME280;70055;39.436;-77.514;2023-07-28T06:47:21;99516.12;;;23.46;60.78
80693;BME280;70055;39.436;-77.514;2023-07-28T06:49:49;99520.20;;;23.47;60.93
80693;BME280;70055;39.436;-77.514;2023-07-28T06:52:17;99524.01;;;22.91;61.62
80693;BME280;70055;39.436;-77.514;2023-07-28T06:54:45;99517.33;;;23.02;60.62
80693;BME280;70055;39.436;-77.514;2023-07-28T06:57:13;99511.83;;;23.31;60.44
80693;BME280;70055;39.436;-77.514;2023-07-28T06:59:42;99505.38;;;23.84;59.13
80693;BME280;70055;39.436;-77.514;2023-07-28T07:02:10;99501.53;;;22.29;62.18
80693;BME280;70055;39.436;-77.514;2023-07-28T07:04:38;99502.13;;;22.29;62.62
80693;BME280;70055;39.436;-77.514;2023-07-28T07:07:06;99502.27;;;22.73;60.92
80693;BME280;70055;39.436;-77.514;2023-07-28T07:09:34;99497.17;;;22.58;61.47
80693;BME280;70055;39.436;-77.514;2023-07-28T07:12:02;99503.65;;;22.19;63.11
80693;BME280;70055;39.436;-77.514;2023-07-28T07:14:30;99501.22;;;22.23;62.07
80693;BME280;70055;39.436;-77.514;2023-07-28T07:16:59;99497.22;;;22.92;59.53
80693;BME280;70055;39.436;-77.514;2023-07-28T07:19:28;99496.50;;;22.84;60.05
80693;BME280;70055;39.436;-77.514;2023-07-28T07:21:57;99497.98;;;23.10;60.53
80693;BME280;70055;39.436;-77.514;2023-07-28T07:24:24;99501.40;;;22.55;61.91
80693;BME280;70055;39.436;-77.514;2023-07-28T07:26:52;99501.68;;;22.83;61.33
80693;BME280;70055;39.436;-77.514;2023-07-28T07:29:20;99498.90;;;23.32;59.79
80693;BME280;70055;39.436;-77.514;2023-07-28T07:31:48;99501.09;;;22.01;62.16
80693;BME280;70055;39.436;-77.514;2023-07-28T07:34:16;99504.19;;;22.81;59.85
80693;BME280;70055;39.436;-77.514;2023-07-28T07:36:44;99507.28;;;22.83;60.37
80693;BME280;70055;39.436;-77.514;2023-07-28T07:39:13;99511.93;;;23.10;59.34
80693;BME280;70055;39.436;-77.514;2023-07-28T07:41:41;99515.01;;;22.59;60.35
80693;BME280;70055;39.436;-77.514;2023-07-28T07:44:09;99513.26;;;22.76;60.41
80693;BME280;70055;39.436;-77.514;2023-07-28T07:46:37;99513.01;;;22.75;60.29
80693;BME280;70055;39.436;-77.514;2023-07-28T07:49:05;99510.75;;;23.19;60.04
80693;BME280;70055;39.436;-77.514;2023-07-28T07:51:33;99506.30;;;23.16;59.12
80693;BME280;70055;39.436;-77.514;2023-07-28T07:54:00;99503.19;;;22.63;60.36
80693;BME280;70055;39.436;-77.514;2023-07-28T07:56:28;99504.19;;;22.86;59.50
80693;BME280;70055;39.436;-77.514;2023-07-28T07:58:57;99509.52;;;22.01;61.67
80693;BME280;70055;39.436;-77.514;2023-07-28T08:01:24;99515.35;;;21.18;64.18
80693;BME280;70055;39.436;-77.514;2023-07-28T08:03:52;99513.23;;;22.14;61.37
80693;BME280;70055;39.436;-77.514;2023-07-28T08:06:20;99505.93;;;22.77;59.82
80693;BME280;70055;39.436;-77.514;2023-07-28T08:08:48;99494.23;;;22.60;60.89
80693;BME280;70055;39.436;-77.514;2023-07-28T08:11:16;99494.51;;;22.79;60.75
80693;BME280;70055;39.436;-77.514;2023-07-28T08:13:45;99501.46;;;22.94;60.86
80693;BME280;70055;39.436;-77.514;2023-07-28T08:16:13;99502.20;;;22.91;61.70
80693;BME280;70055;39.436;-77.514;2023-07-28T08:18:41;99491.88;;;22.71;60.47
80693;BME280;70055;39.436;-77.514;2023-07-28T08:21:10;99496.23;;;22.42;60.92
80693;BME280;70055;39.436;-77.514;2023-07-28T08:23:37;99504.10;;;20.35;67.25
80693;BME280;70055;39.436;-77.514;2023-07-28T08:26:05;99509.10;;;21.79;63.59
80693;BME280;70055;39.436;-77.514;2023-07-28T08:28:33;99502.53;;;22.55;61.36
80693;BME280;70055;39.436;-77.514;2023-07-28T08:31:00;99507.23;;;22.65;60.91
80693;BME280;70055;39.436;-77.514;2023-07-28T08:33:28;99520.04;;;21.50;63.14
80693;BME280;70055;39.436;-77.514;2023-07-28T08:35:56;99519.78;;;22.77;60.13
80693;BME280;70055;39.436;-77.514;2023-07-28T08:38:24;99522.04;;;22.88;59.44
80693;BME280;70055;39.436;-77.514;2023-07-28T08:40:52;99523.76;;;22.81;59.56
80693;BME280;70055;39.436;-77.514;2023-07-28T08:43:20;99527.76;;;22.70;60.16
80693;BME280;70055;39.436;-77.514;2023-07-28T08:45:48;99529.51;;;22.87;60.24
80693;BME280;70055;39.436;-77.514;2023-07-28T08:48:16;99533.85;;;22.29;61.58
80693;BME280;70055;39.436;-77.514;2023-07-28T08:50:45;99542.21;;;22.77;60.26
80693;BME280;70055;39.436;-77.514;2023-07-28T08:53:12;99549.82;;;23.04;60.34
80693;BME280;70055;39.436;-77.514;2023-07-28T08:55:40;99555.21;;;23.00;59.89
80693;BME280;70055;39.436;-77.514;2023-07-28T08:58:17;99564.37;;;22.61;59.83
80693;BME280;70055;39.436;-77.514;2023-07-28T09:00:46;99575.27;;;22.59;60.00
80693;BME280;70055;39.436;-77.514;2023-07-28T09:03:14;99582.97;;;22.67;60.33
80693;BME280;70055;39.436;-77.514;2023-07-28T09:05:42;99587.44;;;21.83;61.81
80693;BME280;70055;39.436;-77.514;2023-07-28T09:08:11;99582.66;;;22.17;59.99
80693;BME280;70055;39.436;-77.514;2023-07-28T09:10:43;99577.37;;;21.83;59.30
80693;BME280;70055;39.436;-77.514;2023-07-28T09:13:12;99579.21;;;22.32;59.68
80693;BME280;70055;39.436;-77.514;2023-07-28T09:15:40;99583.46;;;22.14;59.48
80693;BME280;70055;39.436;-77.514;2023-07-28T09:18:09;99584.18;;;22.24;60.60
80693;BME280;70055;39.436;-77.514;2023-07-28T09:20:40;99580.64;;;22.24;60.79
80693;BME280;70055;39.436;-77.514;2023-07-28T09:23:09;99578.43;;;22.32;61.50
80693;BME280;70055;39.436;-77.514;2023-07-28T09:25:38;99576.28;;;22.57;60.43
80693;BME280;70055;39.436;-77.514;2023-07-28T09:28:06;99577.46;;;22.56;61.13
80693;BME280;70055;39.436;-77.514;2023-07-28T09:30:48;99575.62;;;22.84;60.33
80693;BME280;70055;39.436;-77.514;2023-07-28T09:33:30;99577.27;;;22.82;60.19
80693;BME280;70055;39.436;-77.514;2023-07-28T09:36:08;99586.01;;;22.48;60.82
80693;BME280;70055;39.436;-77.514;2023-07-28T09:38:38;99592.47;;;22.38;60.74
80693;BME280;70055;39.436;-77.514;2023-07-28T09:41:08;99592.79;;;22.44;60.38
80693;BME280;70055;39.436;-77.514;2023-07-28T09:43:37;99598.67;;;22.35;61.46
80693;BME280;70055;39.436;-77.514;2023-07-28T09:46:07;99605.63;;;22.36;61.64
80693;BME280;70055;39.436;-77.514;2023-07-28T09:48:38;99605.66;;;22.77;60.33
80693;BME280;70055;39.436;-77.514;2023-07-28T09:51:11;99601.46;;;22.41;60.77
80693;BME280;70055;39.436;-77.514;2023-07-28T09:53:44;99605.79;;;21.71;61.76
80693;BME280;70055;39.436;-77.514;2023-07-28T09:56:15;99608.89;;;22.65;60.81
80693;BME280;70055;39.436;-77.514;2023-07-28T09:58:49;99610.29;;;22.42;61.32
80693;BME280;70055;39.436;-77.514;2023-07-28T10:01:17;99604.40;;;22.26;60.51
80693;BME280;70055;39.436;-77.514;2023-07-28T10:03:47;99606.22;;;22.28;60.54
80693;BME280;70055;39.436;-77.514;2023-07-28T10:06:16;99611.64;;;22.04;60.74
80693;BME280;70055;39.436;-77.514;2023-07-28T10:08:45;99612.26;;;22.05;59.75
80693;BME280;70055;39.436;-77.514;2023-07-28T10:11:14;99613.34;;;22.49;59.30
80693;BME280;70055;39.436;-77.514;2023-07-28T10:13:43;99613.81;;;22.68;59.89
80693;BME280;70055;39.436;-77.514;2023-07-28T10:16:11;99615.32;;;22.73;59.92
80693;BME280;70055;39.436;-77.514;2023-07-28T10:18:40;99618.09;;;22.60;59.67
80693;BME280;70055;39.436;-77.514;2023-07-28T10:21:10;99619.20;;;22.82;60.03
80693;BME280;70055;39.436;-77.514;2023-07-28T10:23:44;99622.21;;;22.86;59.92
80693;BME280;70055;39.436;-77.514;2023-07-28T10:26:13;99624.52;;;22.32;60.34
80693;BME280;70055;39.436;-77.514;2023-07-28T10:28:41;99625.13;;;22.48;59.94
80693;BME280;70055;39.436;-77.514;2023-07-28T10:31:10;99622.24;;;22.64;59.72
80693;BME280;70055;39.436;-77.514;2023-07-28T10:33:41;99619.40;;;22.44;59.73
80693;BME280;70055;39.436;-77.514;2023-07-28T10:36:13;99626.14;;;22.36;60.82
80693;BME280;70055;39.436;-77.514;2023-07-28T10:38:42;99627.94;;;22.57;60.43
80693;BME280;70055;39.436;-77.514;2023-07-28T10:41:13;99626.55;;;22.63;59.71
80693;BME280;70055;39.436;-77.514;2023-07-28T10:43:43;99625.90;;;22.54;60.05
80693;BME280;70055;39.436;-77.514;2023-07-28T10:46:14;99621.19;;;22.50;60.38
80693;BME280;70055;39.436;-77.514;2023-07-28T10:48:44;99621.54;;;22.25;61.36
80693;BME280;70055;39.436;-77.514;2023-07-28T10:51:21;99620.88;;;22.67;61.98
80693;BME280;70055;39.436;-77.514;2023-07-28T10:53:51;99626.44;;;22.72;62.43
80693;BME280;70055;39.436;-77.514;2023-07-28T10:56:18;99626.84;;;23.39;61.41
80693;BME280;70055;39.436;-77.514;2023-07-28T10:58:47;99617.61;;;23.56;60.68
80693;BME280;70055;39.436;-77.514;2023-07-28T11:01:31;99614.52;;;23.36;60.67
80693;BME280;70055;39.436;-77.514;2023-07-28T11:04:07;99612.65;;;23.91;60.82
80693;BME280;70055;39.436;-77.514;2023-07-28T11:06:35;99612.04;;;24.09;60.24
80693;BME280;70055;39.436;-77.514;2023-07-28T11:09:06;99619.48;;;23.30;61.72
80693;BME280;70055;39.436;-77.514;2023-07-28T11:11:34;99614.41;;;23.63;61.10
80693;BME280;70055;39.436;-77.514;2023-07-28T11:14:03;99608.95;;;23.74;61.34
80693;BME280;70055;39.436;-77.514;2023-07-28T11:16:34;99612.72;;;23.12;62.68
80693;BME280;70055;39.436;-77.514;2023-07-28T11:19:06;99611.80;;;24.04;60.61
80693;BME280;70055;39.436;-77.514;2023-07-28T11:21:37;99613.22;;;22.98;62.22
80693;BME280;70055;39.436;-77.514;2023-07-28T11:24:05;99617.47;;;24.60;60.36
80693;BME280;70055;39.436;-77.514;2023-07-28T11:26:36;99622.05;;;22.97;62.57
80693;BME280;70055;39.436;-77.514;2023-07-28T11:29:04;99619.40;;;23.32;63.73
80693;BME280;70055;39.436;-77.514;2023-07-28T11:31:33;99614.04;;;24.10;60.96
80693;BME280;70055;39.436;-77.514;2023-07-28T11:34:01;99618.69;;;24.95;59.30
80693;BME280;70055;39.436;-77.514;2023-07-28T11:36:31;99624.51;;;26.01;57.00
80693;BME280;70055;39.436;-77.514;2023-07-28T11:39:00;99629.74;;;25.16;57.46
80693;BME280;70055;39.436;-77.514;2023-07-28T11:41:28;99630.35;;;25.66;57.28
80693;BME280;70055;39.436;-77.514;2023-07-28T11:43:57;99630.76;;;25.96;57.62
80693;BME280;70055;39.436;-77.514;2023-07-28T11:46:35;99628.38;;;25.83;57.56
80693;BME280;70055;39.436;-77.514;2023-07-28T11:49:10;99632.31;;;26.22;56.48
80693;BME280;70055;39.436;-77.514;2023-07-28T11:51:40;99638.06;;;26.68;55.14
80693;BME280;70055;39.436;-77.514;2023-07-28T11:54:12;99638.41;;;27.38;54.49
80693;BME280;70055;39.436;-77.514;2023-07-28T11:56:42;99640.86;;;26.36;55.70
80693;BME280;70055;39.436;-77.514;2023-07-28T11:59:10;99638.26;;;27.50;53.55
80693;BME280;70055;39.436;-77.514;2023-07-28T12:01:52;99646.51;;;26.45;55.15
80693;BME280;70055;39.436;-77.514;2023-07-28T12:04:21;99645.39;;;27.52;53.72
80693;BME280;70055;39.436;-77.514;2023-07-28T12:07:08;99643.62;;;28.00;51.97
80693;BME280;70055;39.436;-77.514;2023-07-28T12:09:52;99646.74;;;27.49;52.26
80693;BME280;70055;39.436;-77.514;2023-07-28T12:12:23;99643.50;;;27.94;50.69
80693;BME280;70055;39.436;-77.514;2023-07-28T12:14:52;99638.44;;;29.26;47.68
80693;BME280;70055;39.436;-77.514;2023-07-28T12:17:22;99645.39;;;29.22;46.02
80693;BME280;70055;39.436;-77.514;2023-07-28T12:20:01;99657.36;;;29.79;45.68
80693;BME280;70055;39.436;-77.514;2023-07-28T12:22:30;99658.99;;;30.09;44.48
80693;BME280;70055;39.436;-77.514;2023-07-28T12:24:58;99663.86;;;31.22;44.28
80693;BME280;70055;39.436;-77.514;2023-07-28T12:27:27;99666.22;;;32.09;41.85
80693;BME280;70055;39.436;-77.514;2023-07-28T12:29:55;99670.86;;;31.77;41.19
80693;BME280;70055;39.436;-77.514;2023-07-28T12:32:22;99672.21;;;31.91;43.16
80693;BME280;70055;39.436;-77.514;2023-07-28T12:34:51;99675.10;;;31.37;44.43
80693;BME280;70055;39.436;-77.514;2023-07-28T12:37:20;99675.90;;;31.87;42.67
80693;BME280;70055;39.436;-77.514;2023-07-28T12:39:49;99677.17;;;32.09;38.87
80693;BME280;70055;39.436;-77.514;2023-07-28T12:42:17;99680.83;;;30.33;41.33
80693;BME280;70055;39.436;-77.514;2023-07-28T12:44:45;99682.10;;;32.38;38.68
80693;BME280;70055;39.436;-77.514;2023-07-28T12:47:13;99683.65;;;31.80;39.79
80693;BME280;70055;39.436;-77.514;2023-07-28T12:49:42;99678.13;;;31.42;41.05